^^
Grace C. Lehan Memorial Weather Station Historical Data
Daily Summary for September 24, 2021 Units:  English    Metric   Both
Daily Weekly Monthly Yearly
  High: Low: Average:
Temperature: 75.3 °F 58.7 °F 67.4 °F
Dew Point: 71.8 °F 55.8 °F 62.6 °F
Humidity: 96% 60.3% 85%
Wind Speed: 2.6mph 0mph 0.3mph
Wind Gust: 13mph - -
Wind- - SSW
Pressure: 30.02 in 29.90 in -
Precipitation: 1.42 in    
 
 
Tabular Data for September 24, 2021
Time Temperature Dew Point Pressure Wind Wind Speed Wind Gust Humidity Rainfall Rate (Hourly) solar
00:00 75.1 °F 71.6 °F 29.93 in Calm   7 mph 89% 0.00 in 0 W/m2
00:09 75.2 °F 71.7 °F 29.93 in SE 1.2 mph 11 mph 89% 0.00 in 0 W/m2
00:14 75.2 °F 71.8 °F 29.93 in SE 1.3 mph 11 mph 89% 0.00 in 0 W/m2
00:19 75.3 °F 71.8 °F 29.93 in ESE 1.1 mph 11 mph 89% 0.00 in 0 W/m2
00:24 75.3 °F 71.8 °F 29.92 in ESE 0.9 mph 11 mph 89% 0.00 in 0 W/m2
00:29 75.3 °F 71.8 °F 29.92 in ESE 1.3 mph 11 mph 89% 0.00 in 0 W/m2
00:34 75.3 °F 71.7 °F 29.92 in ESE 0.9 mph 11 mph 88.7% 0.00 in 0 W/m2
00:39 75.2 °F 71.4 °F 29.92 in ESE 0.5 mph 6 mph 88% 0.00 in 0 W/m2
00:44 75.2 °F 71.4 °F 29.93 in ESE 0.5 mph 7 mph 88% 0.00 in 0 W/m2
00:49 75.2 °F 71.4 °F 29.93 in SSE 1.1 mph 7 mph 88% 0.00 in 0 W/m2
00:54 75.2 °F 71.4 °F 29.93 in ESE 0.7 mph 9 mph 88% 0.00 in 0 W/m2
00:59 75.2 °F 71.4 °F 29.93 in SE 1.1 mph 9 mph 88% 0.00 in 0 W/m2
01:04 75.2 °F 71.4 °F 29.93 in SE 1.4 mph 9 mph 88% 0.00 in 0 W/m2
01:09 75.2 °F 71.4 °F 29.92 in ESE 0.7 mph 9 mph 88% 0.00 in 0 W/m2
01:14 75.1 °F 71.4 °F 29.92 in SE 1.3 mph 9 mph 88% 0.00 in 0 W/m2
01:19 75.1 °F 71.3 °F 29.92 in ESE 1.2 mph 9 mph 88% 0.00 in 0 W/m2
01:24 75.1 °F 71.3 °F 29.92 in ESE 0.9 mph 9 mph 88% 0.00 in 0 W/m2
01:29 75 °F 71.2 °F 29.92 in ESE 0.5 mph 9 mph 88% 0.00 in 0 W/m2
01:34 75 °F 71.2 °F 29.92 in SE 0.9 mph 9 mph 88% 0.00 in 0 W/m2
01:39 74.9 °F 71.2 °F 29.92 in SSE 0.9 mph 11 mph 88% 0.00 in 0 W/m2
01:44 74.9 °F 71.1 °F 29.92 in SSE 0.3 mph 11 mph 88% 0.00 in 0 W/m2
01:49 74.9 °F 71.1 °F 29.92 in SE 1.5 mph 11 mph 88% 0.00 in 0 W/m2
01:54 74.9 °F 71.1 °F 29.92 in SE 2.6 mph 12 mph 88% 0.00 in 0 W/m2
01:59 74.9 °F 71.1 °F 29.92 in SE 1.3 mph 12 mph 88% 0.00 in 0 W/m2
02:04 74.8 °F 71 °F 29.91 in SE 1.1 mph 12 mph 88% 0.00 in 0 W/m2
02:09 74.8 °F 71 °F 29.91 in ESE 1.1 mph 13 mph 88% 0.00 in 0 W/m2
02:14 74.8 °F 71.1 °F 29.91 in ESE 1.3 mph 13 mph 88.2% 0.00 in 0 W/m2
02:19 74.8 °F 71.1 °F 29.91 in SE 1.8 mph 13 mph 88.4% 0.00 in 0 W/m2
02:24 74.8 °F 71.1 °F 29.91 in SE 1.2 mph 13 mph 88% 0.00 in 0 W/m2
02:29 74.8 °F 71.3 °F 29.91 in SSE 1.5 mph 13 mph 88.8% 0.00 in 0 W/m2
02:34 74.8 °F 71.4 °F 29.92 in SE 0.6 mph 13 mph 89% 0.00 in 0 W/m2
02:39 74.8 °F 71.3 °F 29.92 in South 0.7 mph 6 mph 89% 0.00 in 0 W/m2
02:44 74.8 °F 71.3 °F 29.91 in SE 0.8 mph 9 mph 89% 0.00 in 0 W/m2
02:49 74.8 °F 71.3 °F 29.91 in South 0.5 mph 9 mph 89% 0.00 in 0 W/m2
02:54 74.8 °F 71.3 °F 29.90 in ESE 1.7 mph 12 mph 89% 0.01 in 0 W/m2
02:59 74.7 °F 71.4 °F 29.90 in SSE 0.8 mph 12 mph 89.5% 0.02 in 0 W/m2
03:04 74.5 °F 71.4 °F 29.90 in South 0.4 mph 12 mph 90% 0.02 in 0 W/m2
03:09 74.3 °F 71.4 °F 29.91 in South 1.1 mph 6 mph 90.7% 0.02 in 0 W/m2
03:14 74.2 °F 71.4 °F 29.91 in Calm   6 mph 91% 0.04 in 0 W/m2
03:19 74 °F 71.2 °F 29.90 in SSE 0.9 mph 6 mph 91% 0.04 in 0 W/m2
03:24 73.9 °F 71.4 °F 29.91 in South 0.5 mph 6 mph 91.8% 0.04 in 0 W/m2
03:29 73.8 °F 71.3 °F 29.91 in SW 0.7 mph 6 mph 92% 0.05 in 0 W/m2
03:34 73.7 °F 71.3 °F 29.91 in South 0.1 mph 6 mph 92% 0.06 in 0 W/m2
03:39 73.7 °F 71.4 °F 29.91 in SE 0.1 mph 3 mph 92.4% 0.06 in 0 W/m2
03:44 73.7 °F 71.5 °F 29.91 in SW 0.3 mph 4 mph 93% 0.06 in 0 W/m2
03:49 73.6 °F 71.5 °F 29.91 in Calm   4 mph 93% 0.06 in 0 W/m2
03:54 73.5 °F 71.4 °F 29.90 in SE 0.7 mph 6 mph 93% 0.07 in 0 W/m2
03:59 73.5 °F 71.4 °F 29.91 in SE 0.8 mph 6 mph 93% 0.08 in 0 W/m2
04:00 73.5 °F 71.4 °F 29.91 in Calm   6 mph 93% 0.08 in 0 W/m2
04:09 73.5 °F 71.3 °F 29.92 in Calm   2 mph 93% 0.18 in 0 W/m2
04:14 73.2 °F 70.8 °F 29.92 in WSW 0.2 mph 2 mph 92.2% 0.23 in 0 W/m2
04:19 72.6 °F 70.1 °F 29.92 in WSW 0.7 mph 6 mph 92% 0.27 in 0 W/m2
04:24 71.8 °F 69.1 °F 29.93 in WSW 0.3 mph 6 mph 91% 0.34 in 0 W/m2
04:29 71.1 °F 68.3 °F 29.93 in WSW 0.1 mph 6 mph 91% 0.38 in 0 W/m2
04:34 70.4 °F 67.6 °F 29.92 in WSW 0.4 mph 6 mph 91% 0.48 in 0 W/m2
04:39 69.9 °F 67.3 °F 29.93 in West 0.6 mph 5 mph 91.7% 0.74 in 0 W/m2
04:44 69.4 °F 67 °F 29.93 in WNW 0.6 mph 5 mph 92% 0.87 in 0 W/m2
04:49 68.9 °F 66.6 °F 29.92 in Calm   5 mph 92.2% 0.91 in 0 W/m2
04:54 68.7 °F 66.6 °F 29.92 in Calm   5 mph 93% 0.94 in 0 W/m2
04:59 68.5 °F 66.4 °F 29.92 in WNW 0.2 mph 5 mph 93% 0.94 in 0 W/m2
05:04 68.2 °F 66.1 °F 29.92 in West 0.4 mph 5 mph 93% 0.94 in 0 W/m2
05:09 68 °F 66.1 °F 29.92 in Calm   3 mph 93.6% 0.92 in 0 W/m2
05:14 67.9 °F 66.1 °F 29.92 in Calm   3 mph 94% 0.93 in 0 W/m2
05:19 67.7 °F 65.9 °F 29.91 in Calm   3 mph 94% 0.93 in 0 W/m2
05:24 67.6 °F 65.8 °F 29.92 in Calm   3 mph 94% 0.94 in 0 W/m2
05:29 67.6 °F 65.8 °F 29.92 in WNW 0.6 mph 4 mph 94% 0.99 in 0 W/m2
05:34 67.6 °F 65.9 °F 29.92 in Calm   4 mph 94.5% 0.99 in 0 W/m2
05:39 67.5 °F 66 °F 29.91 in Calm     95% 0.70 in 0 W/m2
05:44 67.5 °F 66 °F 29.91 in Calm     95% 0.70 in 0 W/m2
05:49 67.4 °F 65.9 °F 29.92 in Calm     95% 0.70 in 0 W/m2
05:54 67.4 °F 65.9 °F 29.92 in Calm     95% 0.70 in 0 W/m2
05:59 67.4 °F 65.9 °F 29.92 in Calm     95% 0.70 in 0 W/m2
06:04 67.4 °F 65.9 °F 29.93 in Calm     95% 0.70 in 0 W/m2
06:09 67.2 °F 65.8 °F 29.93 in WNW 0.1 mph 1 mph 95% 0.12 in 0 W/m2
06:14 67.1 °F 65.6 °F 29.93 in West 0.6 mph 5 mph 95% 0.12 in 0 W/m2
06:19 66.9 °F 65.5 °F 29.93 in West 0.1 mph 5 mph 95% 0.12 in 0 W/m2
06:24 66.8 °F 65.3 °F 29.93 in West 0.3 mph 5 mph 95% 0.12 in 0 W/m2
06:29 66.6 °F 65.1 °F 29.93 in West 1.1 mph 6 mph 95% 0.12 in 0 W/m2
06:34 66.4 °F 64.9 °F 29.93 in WNW 0.8 mph 6 mph 95% 0.12 in 0 W/m2
06:39 66.2 °F 64.7 °F 29.93 in SW 1.4 mph 7 mph 95% 0.04 in 0 W/m2
06:43 66 °F 64.6 °F 29.93 in SW 0.1 mph 7 mph 95% 0.04 in 0 W/m2
07:00 65.7 °F 64.2 °F 29.93 in WSW 1 mph 8 mph 95% 0.00 in 0 W/m2
07:30 65 °F 63.5 °F 29.94 in West 1 mph 7 mph 95% 0.00 in 0 W/m2
08:04 64.2 °F 62.7 °F 29.98 in WSW 0.5 mph 7 mph 95% 0.10 in 11 W/m2
08:09 64 °F 62.5 °F 29.98 in West 1.5 mph 9 mph 95% 0.10 in 12 W/m2
08:14 63.8 °F 62.3 °F 29.97 in West 2 mph 9 mph 95% 0.10 in 12 W/m2
08:19 63.5 °F 62.1 °F 29.97 in WSW 0.3 mph 9 mph 95% 0.12 in 5 W/m2
08:24 63.3 °F 61.8 °F 29.96 in West 2 mph 9 mph 95% 0.14 in 0 W/m2
08:29 63.1 °F 61.6 °F 29.97 in West 0.8 mph 9 mph 95% 0.16 in 0 W/m2
08:34 62.8 °F 61.4 °F 29.98 in West 0.4 mph 9 mph 95% 1.14 in 0 W/m2
08:39 62.7 °F 61.3 °F 29.98 in West 0.2 mph 5 mph 95% 1.16 in 9 W/m2
08:44 62.6 °F 61.2 °F 29.97 in West 0.1 mph 5 mph 95% 1.17 in 9 W/m2
08:49 62.5 °F 61 °F 29.98 in Calm   5 mph 95% 1.17 in 7 W/m2
08:54 62.4 °F 61 °F 29.98 in Calm   5 mph 95% 1.17 in 11 W/m2
08:59 62.4 °F 60.9 °F 29.98 in Calm   5 mph 95% 1.17 in 11 W/m2
09:04 62.3 °F 60.8 °F 29.98 in West 0.2 mph 5 mph 95% 1.17 in 12 W/m2
09:09 62.2 °F 60.8 °F 30.00 in Calm   4 mph 95% 0.07 in 9 W/m2
09:14 62.2 °F 60.7 °F 30.01 in Calm   4 mph 95% 0.08 in 7 W/m2
09:19 62.1 °F 60.7 °F 30.01 in Calm   4 mph 95% 0.09 in 7 W/m2
09:24 62 °F 60.6 °F 30.00 in Calm   4 mph 95% 0.10 in 7 W/m2
09:29 62 °F 60.5 °F 30.01 in Calm   4 mph 95% 0.11 in 11 W/m2
09:34 61.8 °F 60.4 °F 30.01 in West 1.2 mph 7 mph 95% 0.12 in 12 W/m2
09:39 61.5 °F 60 °F 30.00 in WSW 0.6 mph 7 mph 95% 0.12 in 16 W/m2
09:44 61 °F 59.6 °F 30.00 in WNW 1.8 mph 7 mph 95% 0.12 in 32 W/m2
09:49 60.8 °F 59.4 °F 30.00 in Calm   7 mph 95% 0.13 in 35 W/m2
09:54 60.8 °F 59.4 °F 30.00 in Calm   7 mph 95% 0.13 in 60 W/m2
09:59 60.9 °F 59.5 °F 30.00 in Calm   7 mph 95.3% 0.13 in 79 W/m2
10:04 61 °F 59.8 °F 30.00 in WNW 0.1 mph 7 mph 95.8% 0.13 in 84 W/m2
10:09 61.1 °F 59.9 °F 30.00 in Calm   2 mph 96% 0.07 in 63 W/m2
10:14 61 °F 59.7 °F 29.99 in Calm   2 mph 95.5% 0.08 in 83 W/m2
10:19 60.9 °F 59.5 °F 29.99 in Calm   2 mph 95% 0.09 in 120 W/m2
10:24 60.9 °F 59.6 °F 29.99 in WNW 0.5 mph 3 mph 95.3% 0.09 in 350 W/m2
10:29 61.2 °F 60.1 °F 29.99 in Calm   3 mph 96% 0.09 in 313 W/m2
10:33 61.6 °F 60.4 °F 29.99 in Calm   3 mph 96% 0.09 in 178 W/m2
10:39 61.5 °F 60.2 °F 29.99 in Calm     95.3% 0.04 in 248 W/m2
10:44 61.5 °F 60 °F 29.98 in Calm     95% 0.04 in 304 W/m2
10:49 61.3 °F 59.8 °F 29.99 in Calm     94.9% 0.04 in 148 W/m2
10:54 61.1 °F 59.4 °F 29.99 in Calm     94% 0.04 in 183 W/m2
10:59 61.1 °F 59.4 °F 29.99 in Calm     94% 0.04 in 236 W/m2
11:04 61.1 °F 59.4 °F 30.00 in Calm     94% 0.04 in 207 W/m2
11:09 61.3 °F 59.6 °F 30.00 in Calm     94% 0.02 in 146 W/m2
11:14 61.6 °F 60.1 °F 30.00 in Calm     95% 0.02 in 146 W/m2
11:19 61.8 °F 60.1 °F 30.00 in Calm     94% 0.02 in 125 W/m2
11:24 61.8 °F 60.1 °F 30.00 in Calm     94% 0.02 in 134 W/m2
11:29 61.8 °F 60.1 °F 30.00 in Calm     94% 0.02 in 125 W/m2
11:34 61.8 °F 59.8 °F 30.00 in Calm     93.1% 0.02 in 151 W/m2
11:39 61.8 °F 59.8 °F 30.00 in Calm     93.2% 0.00 in 146 W/m2
11:44 62 °F 60.2 °F 30.00 in WNW 0.1 mph 2 mph 94% 0.00 in 258 W/m2
11:49 62.3 °F 60.5 °F 30.00 in Calm   2 mph 94% 0.00 in 290 W/m2
11:54 62.5 °F 60.7 °F 29.99 in Calm   2 mph 93.8% 0.00 in 274 W/m2
11:59 62.7 °F 60.9 °F 30.00 in Calm   2 mph 93.9% 0.00 in 183 W/m2
12:09 63.2 °F 61.2 °F 30.00 in Calm     93.4% 0.00 in 204 W/m2
12:14 63.3 °F 61.3 °F 30.00 in Calm     93% 0.00 in 183 W/m2
12:19 63.3 °F 61.3 °F 30.00 in Calm     93% 0.00 in 213 W/m2
12:24 63.4 °F 61.2 °F 30.00 in Calm     92.5% 0.00 in 213 W/m2
12:29 63.4 °F 61 °F 30.00 in Calm     92% 0.00 in 287 W/m2
12:34 63.5 °F 61.2 °F 29.99 in Calm     92% 0.00 in 287 W/m2
12:39 63.9 °F 61.8 °F 30.00 in Calm     93% 0.00 in 209 W/m2
12:44 64 °F 61.6 °F 30.00 in Calm     92% 0.00 in 146 W/m2
12:49 63.9 °F 61.2 °F 30.00 in Calm     91% 0.00 in 144 W/m2
12:54 64 °F 61.3 °F 30.00 in Calm     91% 0.00 in 195 W/m2
12:59 63.9 °F 61 °F 30.00 in Calm     90.3% 0.00 in 227 W/m2
13:04 63.9 °F 61 °F 30.00 in Calm     90.3% 0.00 in 253 W/m2
13:09 64 °F 61.1 °F 30.00 in Calm     90.2% 0.00 in 313 W/m2
13:14 64.2 °F 61.3 °F 30.00 in Calm     90.5% 0.00 in 369 W/m2
13:19 64.4 °F 61.5 °F 30.00 in Calm     90.3% 0.00 in 330 W/m2
13:24 64.8 °F 61.9 °F 30.00 in Calm     90.4% 0.00 in 316 W/m2
13:29 65.2 °F 62.2 °F 29.99 in Calm     90% 0.00 in 295 W/m2
13:34 65.7 °F 62.4 °F 29.99 in Calm   1 mph 89.3% 0.00 in 315 W/m2
13:39 66.2 °F 62.8 °F 29.99 in Calm   1 mph 88.7% 0.00 in 104 W/m2
13:44 66.6 °F 62.7 °F 29.99 in Calm   1 mph 87.1% 0.00 in 83 W/m2
13:49 66.9 °F 62.4 °F 29.98 in WNW 0.1 mph 2 mph 85.5% 0.00 in 49 W/m2
13:54 67.1 °F 62.2 °F 29.98 in WNW 0.1 mph 2 mph 84.2% 0.00 in 77 W/m2
13:59 67.3 °F 62.2 °F 29.98 in WNW 0.1 mph 2 mph 83.8% 0.00 in 93 W/m2
14:04 67.6 °F 62.5 °F 29.98 in SW 0.4 mph 5 mph 83.7% 0.00 in 74 W/m2
14:09 67.8 °F 62.1 °F 29.98 in Calm   5 mph 81.9% 0.00 in 49 W/m2
14:14 67.9 °F 62 °F 29.98 in SW 0.2 mph 5 mph 81.5% 0.00 in 77 W/m2
14:19 68.1 °F 62.3 °F 29.98 in SE 0.3 mph 5 mph 81.5% 0.00 in 207 W/m2
14:24 68.3 °F 62.3 °F 29.98 in Calm   5 mph 81.2% 0.00 in 276 W/m2
14:29 68.5 °F 62.5 °F 29.98 in SW 0.1 mph 5 mph 81% 0.00 in 279 W/m2
14:34 68.8 °F 62.5 °F 29.97 in Calm   5 mph 80.5% 0.00 in 359 W/m2
14:39 69 °F 62.6 °F 29.97 in Calm     79.9% 0.00 in 274 W/m2
14:44 69.3 °F 62.4 °F 29.97 in Calm     78.6% 0.00 in 311 W/m2
14:49 69.7 °F 62.6 °F 29.96 in SW 0.3 mph 3 mph 78% 0.00 in 348 W/m2
14:54 70.2 °F 63 °F 29.96 in SW 0.3 mph 3 mph 77.9% 0.00 in 295 W/m2
14:59 70.5 °F 62.5 °F 29.96 in Calm   3 mph 75.7% 0.00 in 250 W/m2
15:04 70.6 °F 62 °F 29.95 in Calm   3 mph 74.2% 0.00 in 234 W/m2
15:09 70.8 °F 62.9 °F 29.95 in Calm     75.9% 0.00 in 234 W/m2
15:14 71.1 °F 63.2 °F 29.95 in Calm     76.1% 0.00 in 114 W/m2
15:19 71.3 °F 62.7 °F 29.95 in Calm     74.1% 0.00 in 83 W/m2
15:24 71.6 °F 62.5 °F 29.95 in Calm     72.9% 0.00 in 174 W/m2
15:29 72 °F 62.3 °F 29.95 in Calm     71.6% 0.00 in 448 W/m2
15:34 72.4 °F 62.4 °F 29.95 in WSW 0.9 mph 3 mph 71% 0.00 in 144 W/m2
15:39 72.6 °F 62.2 °F 29.95 in WSW 1.1 mph 9 mph 69.9% 0.00 in 105 W/m2
15:44 72.8 °F 61.1 °F 29.95 in Calm   9 mph 66.7% 0.00 in 214 W/m2
15:49 73 °F 61 °F 29.95 in WNW 0.1 mph 9 mph 66.2% 0.00 in 339 W/m2
15:54 73.2 °F 61.8 °F 29.95 in West 1.2 mph 9 mph 67.5% 0.00 in 144 W/m2
15:59 73.4 °F 61.8 °F 29.95 in WSW 1.4 mph 9 mph 67% 0.00 in 174 W/m2
16:09 73.9 °F 60.1 °F 29.95 in West 0.2 mph 3 mph 62% 0.00 in 171 W/m2
16:14 74.1 °F 60.4 °F 29.95 in West 0.1 mph 3 mph 62.2% 0.00 in 148 W/m2
16:19 74.2 °F 59.9 °F 29.95 in West 0.3 mph 3 mph 61.1% 0.00 in 93 W/m2
16:24 74.1 °F 59.5 °F 29.95 in West 0.7 mph 4 mph 60.3% 0.00 in 83 W/m2
16:29 74 °F 59.8 °F 29.96 in West 0.8 mph 4 mph 61.2% 0.00 in 77 W/m2
16:34 73.9 °F 60.5 °F 29.96 in West 1.4 mph 4 mph 62.9% 0.00 in 72 W/m2
16:39 73.9 °F 60.6 °F 29.96 in West 1 mph 4 mph 63.2% 0.00 in 70 W/m2
16:44 73.9 °F 60.4 °F 29.97 in WSW 0.7 mph 6 mph 62.7% 0.00 in 69 W/m2
16:49 73.9 °F 60.2 °F 29.97 in WSW 0.2 mph 6 mph 62.3% 0.00 in 51 W/m2
16:54 73.8 °F 60.1 °F 29.97 in WSW 0.1 mph 6 mph 62.2% 0.00 in 62 W/m2
16:59 73.7 °F 60.7 °F 29.97 in Calm   6 mph 63.9% 0.00 in 62 W/m2
17:04 73.5 °F 60.7 °F 29.97 in WSW 0.1 mph 6 mph 64.4% 0.00 in 51 W/m2
17:09 73.2 °F 59.9 °F 29.97 in WSW 0.8 mph 7 mph 63.2% 0.00 in 42 W/m2
17:14 72.9 °F 59.1 °F 29.97 in Calm   7 mph 61.8% 0.00 in 30 W/m2
17:19 72.7 °F 58.7 °F 29.97 in West 0.3 mph 7 mph 61.4% 0.00 in 28 W/m2
17:24 72.4 °F 58.4 °F 29.97 in Calm   7 mph 61.3% 0.00 in 26 W/m2
17:29 72.2 °F 58.4 °F 29.97 in Calm   7 mph 61.8% 0.00 in 25 W/m2
17:34 72 °F 58.3 °F 29.97 in West 0.3 mph 7 mph 62% 0.00 in 23 W/m2
17:39 71.8 °F 57.9 °F 29.97 in Calm   4 mph 61.6% 0.00 in 21 W/m2
17:44 71.6 °F 58 °F 29.97 in Calm   4 mph 62.2% 0.00 in 21 W/m2
17:49 71.4 °F 57.7 °F 29.98 in Calm   4 mph 62% 0.00 in 19 W/m2
17:54 71.2 °F 57.6 °F 29.98 in Calm   4 mph 62.1% 0.00 in 18 W/m2
17:59 71.1 °F 57.8 °F 29.98 in Calm   4 mph 62.8% 0.00 in 18 W/m2
18:04 70.9 °F 57.9 °F 29.98 in Calm   4 mph 63.3% 0.00 in 16 W/m2
18:09 70.7 °F 58 °F 29.99 in Calm     64% 0.00 in 16 W/m2
18:14 70.5 °F 57.8 °F 29.99 in Calm     64% 0.00 in 16 W/m2
18:19 70.3 °F 57.8 °F 29.99 in Calm   1 mph 64.5% 0.00 in 16 W/m2
18:24 70.1 °F 57.9 °F 29.99 in Calm   1 mph 65.3% 0.00 in 12 W/m2
18:29 69.9 °F 57.7 °F 29.99 in Calm   1 mph 65.2% 0.00 in 12 W/m2
18:34 69.6 °F 57.6 °F 29.99 in Calm   1 mph 65.7% 0.00 in 9 W/m2
18:39 69.4 °F 57.9 °F 29.99 in Calm     66.9% 0.00 in 5 W/m2
18:44 69.1 °F 57.7 °F 29.99 in Calm     67% 0.00 in 0 W/m2
18:49 68.9 °F 57.5 °F 29.99 in Calm     67% 0.00 in 0 W/m2
18:54 68.6 °F 57.7 °F 29.99 in Calm     68.3% 0.00 in 0 W/m2
18:59 68.3 °F 57.7 °F 29.99 in Calm     69% 0.00 in 0 W/m2
19:04 67.9 °F 57.4 °F 29.99 in Calm     69.1% 0.00 in 0 W/m2
19:09 67.5 °F 57.6 °F 30.00 in Calm     70.5% 0.00 in 0 W/m2
19:14 67.1 °F 57.7 °F 30.00 in Calm     71.7% 0.00 in 0 W/m2
19:19 66.7 °F 57.4 °F 30.00 in Calm     72% 0.00 in 0 W/m2
19:24 66.5 °F 57.2 °F 30.00 in Calm     72% 0.00 in 0 W/m2
19:29 66.2 °F 57.1 °F 30.00 in Calm     72.5% 0.00 in 0 W/m2
19:34 66.1 °F 57.5 °F 30.00 in Calm     73.8% 0.00 in 0 W/m2
19:39 65.9 °F 57.4 °F 30.00 in Calm     74% 0.00 in 0 W/m2
19:44 65.8 °F 57.3 °F 30.00 in Calm     74% 0.00 in 0 W/m2
19:49 65.7 °F 57.9 °F 30.01 in Calm     75.9% 0.00 in 0 W/m2
19:54 65.6 °F 58.7 °F 30.01 in Calm     78.2% 0.00 in 0 W/m2
19:59 65.5 °F 59 °F 30.01 in Calm     79.5% 0.00 in 0 W/m2
20:00 65.5 °F 59.2 °F 30.01 in Calm     80% 0.00 in 0 W/m2
20:09 65.6 °F 60.7 °F 30.02 in Calm     84% 0.00 in 0 W/m2
20:14 65.6 °F 60.4 °F 30.02 in Calm     83.3% 0.00 in 0 W/m2
20:19 65.6 °F 60.3 °F 30.02 in Calm     83% 0.00 in 0 W/m2
20:24 65.5 °F 60.2 °F 30.02 in Calm     83% 0.00 in 0 W/m2
20:29 65.4 °F 60.1 °F 30.02 in Calm     83% 0.00 in 0 W/m2
20:34 65.3 °F 60 °F 30.02 in Calm     83% 0.00 in 0 W/m2
20:39 65.2 °F 60.2 °F 30.02 in Calm     83.8% 0.00 in 0 W/m2
20:44 65.1 °F 60.2 °F 30.02 in Calm     84% 0.00 in 0 W/m2
20:49 64.9 °F 60 °F 30.02 in Calm     84% 0.00 in 0 W/m2
20:54 64.6 °F 59.7 °F 30.02 in Calm     84% 0.00 in 0 W/m2
20:59 64.3 °F 59.4 °F 30.02 in Calm     84% 0.00 in 0 W/m2
21:04 64.1 °F 59.3 °F 30.02 in Calm     84.5% 0.00 in 0 W/m2
21:09 63.8 °F 59.3 °F 30.02 in Calm     85% 0.00 in 0 W/m2
21:14 63.5 °F 59 °F 30.02 in Calm     85.2% 0.00 in 0 W/m2
21:19 63.2 °F 59 °F 30.02 in Calm     86% 0.00 in 0 W/m2
21:24 62.9 °F 58.7 °F 30.02 in Calm     86% 0.00 in 0 W/m2
21:29 62.6 °F 58.4 °F 30.02 in Calm     86% 0.00 in 0 W/m2
21:34 62.3 °F 58.3 °F 30.02 in Calm     86.7% 0.00 in 0 W/m2
21:39 62 °F 58.1 °F 30.02 in Calm     87% 0.00 in 0 W/m2
21:44 61.7 °F 58 °F 30.02 in Calm     87.5% 0.00 in 0 W/m2
21:49 61.5 °F 57.9 °F 30.02 in Calm     88% 0.00 in 0 W/m2
21:54 61.3 °F 57.8 °F 30.02 in Calm   1 mph 88.3% 0.00 in 0 W/m2
21:59 61.1 °F 57.8 °F 30.02 in Calm   1 mph 89% 0.00 in 0 W/m2
22:04 60.9 °F 57.6 °F 30.02 in West 0.1 mph 2 mph 89% 0.00 in 0 W/m2
22:09 60.7 °F 57.5 °F 30.02 in Calm   2 mph 89.1% 0.00 in 0 W/m2
22:14 60.5 °F 57.5 °F 30.02 in Calm   2 mph 90% 0.00 in 0 W/m2
22:19 60.4 °F 57.4 °F 30.02 in Calm   2 mph 90% 0.00 in 0 W/m2
22:24 60.3 °F 57.3 °F 30.02 in Calm   2 mph 90% 0.00 in 0 W/m2
22:29 60.2 °F 57.2 °F 30.02 in Calm   2 mph 90% 0.00 in 0 W/m2
22:34 60 °F 57.1 °F 30.02 in Calm   2 mph 90% 0.00 in 0 W/m2
22:39 59.9 °F 57 °F 30.02 in Calm     90% 0.00 in 0 W/m2
22:44 59.8 °F 56.8 °F 30.01 in Calm     90% 0.00 in 0 W/m2
22:49 59.6 °F 56.7 °F 30.01 in Calm     90% 0.00 in 0 W/m2
22:54 59.5 °F 56.6 °F 30.01 in Calm     90% 0.00 in 0 W/m2
22:59 59.4 °F 56.5 °F 30.01 in Calm     90% 0.00 in 0 W/m2
23:04 59.3 °F 56.4 °F 30.01 in Calm     90% 0.00 in 0 W/m2
23:09 59.3 °F 56.3 °F 30.01 in Calm     90% 0.00 in 0 W/m2
23:14 59.1 °F 56.2 °F 30.01 in Calm     90% 0.00 in 0 W/m2
23:19 59.1 °F 56.1 °F 30.02 in Calm     90% 0.00 in 0 W/m2
23:24 59 °F 56.2 °F 30.02 in Calm     90.3% 0.00 in 0 W/m2
23:29 59 °F 56.2 °F 30.02 in Calm     90.4% 0.00 in 0 W/m2
23:34 58.9 °F 56 °F 30.02 in Calm     90% 0.00 in 0 W/m2
23:39 58.8 °F 55.9 °F 30.02 in Calm     90% 0.00 in 0 W/m2
23:44 58.8 °F 55.9 °F 30.02 in Calm     90% 0.00 in 0 W/m2
23:49 58.8 °F 55.8 °F 30.02 in Calm     90% 0.00 in 0 W/m2
23:54 58.7 °F 55.8 °F 30.02 in Calm     90% 0.00 in 0 W/m2
23:59 58.8 °F 55.8 °F 30.01 in Calm     90% 0.00 in 0 W/m2
Hartford County Weather
Compliments of Weather Underground - 4 mb